sensor_id;sensor_type;location;lat;lon;timestamp;temperature;humidity
13433;DHT22;6789;47.678;9.158;2022-10-10T00:01:13;11.20;99.90
13433;DHT22;6789;47.678;9.158;2022-10-10T00:06:58;11.30;99.90
13433;DHT22;6789;47.678;9.158;2022-10-10T00:12:13;11.20;99.90
13433;DHT22;6789;47.678;9.158;2022-10-10T00:17:19;11.20;99.90
13433;DHT22;6789;47.678;9.158;2022-10-10T00:22:26;11.20;99.90
13433;DHT22;6789;47.678;9.158;2022-10-10T00:27:33;11.20;99.90
13433;DHT22;6789;47.678;9.158;2022-10-10T00:32:39;11.20;99.90
13433;DHT22;6789;47.678;9.158;2022-10-10T00:37:31;11.20;99.90
13433;DHT22;6789;47.678;9.158;2022-10-10T00:42:38;11.20;99.90
13433;DHT22;6789;47.678;9.158;2022-10-10T00:47:55;11.20;99.90
13433;DHT22;6789;47.678;9.158;2022-10-10T00:53:27;11.20;99.90
13433;DHT22;6789;47.678;9.158;2022-10-10T00:58:32;11.20;99.90
13433;DHT22;6789;47.678;9.158;2022-10-10T01:03:25;11.30;99.90
13433;DHT22;6789;47.678;9.158;2022-10-10T01:08:18;11.30;99.90
13433;DHT22;6789;47.678;9.158;2022-10-10T01:13:25;11.50;99.90
13433;DHT22;6789;47.678;9.158;2022-10-10T01:29:44;11.30;99.90
13433;DHT22;6789;47.678;9.158;2022-10-10T01:35:22;11.30;99.90
13433;DHT22;6789;47.678;9.158;2022-10-10T01:40:28;11.30;99.90
13433;DHT22;6789;47.678;9.158;2022-10-10T01:45:22;11.30;99.90
13433;DHT22;6789;47.678;9.158;2022-10-10T01:50:17;11.30;99.90
13433;DHT22;6789;47.678;9.158;2022-10-10T02:00:31;11.40;99.90
13433;DHT22;6789;47.678;9.158;2022-10-10T02:05:44;11.30;99.90
13433;DHT22;6789;47.678;9.158;2022-10-10T02:10:48;11.30;99.90
13433;DHT22;6789;47.678;9.158;2022-10-10T02:15:47;11.30;99.90
13433;DHT22;6789;47.678;9.158;2022-10-10T02:20:44;11.30;99.90
13433;DHT22;6789;47.678;9.158;2022-10-10T02:25:38;11.20;99.90
13433;DHT22;6789;47.678;9.158;2022-10-10T02:30:35;11.20;99.90
13433;DHT22;6789;47.678;9.158;2022-10-10T02:35:34;11.30;99.90
13433;DHT22;6789;47.678;9.158;2022-10-10T02:40:31;11.30;99.90
13433;DHT22;6789;47.678;9.158;2022-10-10T02:45:25;11.30;99.90
13433;DHT22;6789;47.678;9.158;2022-10-10T02:50:20;11.40;99.90
13433;DHT22;6789;47.678;9.158;2022-10-10T02:55:13;11.40;99.90
13433;DHT22;6789;47.678;9.158;2022-10-10T03:00:05;11.30;99.90
13433;DHT22;6789;47.678;9.158;2022-10-10T03:04:57;11.40;99.90
13433;DHT22;6789;47.678;9.158;2022-10-10T03:09:50;11.40;99.90
13433;DHT22;6789;47.678;9.158;2022-10-10T03:14:42;11.40;99.90
13433;DHT22;6789;47.678;9.158;2022-10-10T03:19:35;11.40;99.90
13433;DHT22;6789;47.678;9.158;2022-10-10T03:24:40;11.40;99.90
13433;DHT22;6789;47.678;9.158;2022-10-10T03:29:32;11.40;99.90
13433;DHT22;6789;47.678;9.158;2022-10-10T03:34:38;11.40;99.90
13433;DHT22;6789;47.678;9.158;2022-10-10T03:39:55;11.40;99.90
13433;DHT22;6789;47.678;9.158;2022-10-10T03:45:01;11.40;99.90
13433;DHT22;6789;47.678;9.158;2022-10-10T03:50:07;11.40;99.90
13433;DHT22;6789;47.678;9.158;2022-10-10T03:55:00;11.40;99.90
13433;DHT22;6789;47.678;9.158;2022-10-10T04:00:00;11.30;99.90
13433;DHT22;6789;47.678;9.158;2022-10-10T04:05:11;11.30;99.90
13433;DHT22;6789;47.678;9.158;2022-10-10T04:10:18;11.30;99.90
13433;DHT22;6789;47.678;9.158;2022-10-10T04:15:24;11.40;99.90
13433;DHT22;6789;47.678;9.158;2022-10-10T04:20:31;11.40;99.90
13433;DHT22;6789;47.678;9.158;2022-10-10T04:25:38;11.30;99.90
13433;DHT22;6789;47.678;9.158;2022-10-10T04:30:47;11.40;99.90
13433;DHT22;6789;47.678;9.158;2022-10-10T04:35:53;11.40;99.90
13433;DHT22;6789;47.678;9.158;2022-10-10T04:40:59;11.30;99.90
13433;DHT22;6789;47.678;9.158;2022-10-10T04:46:05;11.30;99.90
13433;DHT22;6789;47.678;9.158;2022-10-10T04:51:12;11.20;99.90
13433;DHT22;6789;47.678;9.158;2022-10-10T04:56:19;11.20;99.90
13433;DHT22;6789;47.678;9.158;2022-10-10T05:01:26;11.20;99.90
13433;DHT22;6789;47.678;9.158;2022-10-10T05:06:41;11.20;99.90
13433;DHT22;6789;47.678;9.158;2022-10-10T05:11:49;11.30;99.90
13433;DHT22;6789;47.678;9.158;2022-10-10T05:16:55;11.30;99.90
13433;DHT22;6789;47.678;9.158;2022-10-10T05:22:02;11.30;99.90
13433;DHT22;6789;47.678;9.158;2022-10-10T05:27:12;11.30;99.90
13433;DHT22;6789;47.678;9.158;2022-10-10T05:32:18;11.30;99.90
13433;DHT22;6789;47.678;9.158;2022-10-10T05:37:24;11.30;99.90
13433;DHT22;6789;47.678;9.158;2022-10-10T05:42:31;11.30;99.90
13433;DHT22;6789;47.678;9.158;2022-10-10T05:47:48;11.40;99.90
13433;DHT22;6789;47.678;9.158;2022-10-10T05:53:25;11.40;99.90
13433;DHT22;6789;47.678;9.158;2022-10-10T05:58:33;11.40;99.90
13433;DHT22;6789;47.678;9.158;2022-10-10T06:03:39;11.40;99.90
13433;DHT22;6789;47.678;9.158;2022-10-10T06:08:46;11.40;99.90
13433;DHT22;6789;47.678;9.158;2022-10-10T06:14:03;11.40;99.90
13433;DHT22;6789;47.678;9.158;2022-10-10T06:19:09;11.50;99.90
13433;DHT22;6789;47.678;9.158;2022-10-10T06:24:16;11.60;99.90
13433;DHT22;6789;47.678;9.158;2022-10-10T06:29:23;11.70;99.90
13433;DHT22;6789;47.678;9.158;2022-10-10T06:34:31;11.80;99.90
13433;DHT22;6789;47.678;9.158;2022-10-10T06:39:38;11.90;99.90
13433;DHT22;6789;47.678;9.158;2022-10-10T06:44:44;12.10;99.90
13433;DHT22;6789;47.678;9.158;2022-10-10T06:49:52;12.20;99.90
13433;DHT22;6789;47.678;9.158;2022-10-10T07:06:44;12.60;99.90
13433;DHT22;6789;47.678;9.158;2022-10-10T07:11:50;12.70;99.90
13433;DHT22;6789;47.678;9.158;2022-10-10T07:17:22;12.80;99.90
13433;DHT22;6789;47.678;9.158;2022-10-10T07:22:31;13.00;99.90
13433;DHT22;6789;47.678;9.158;2022-10-10T07:27:40;13.00;99.90
13433;DHT22;6789;47.678;9.158;2022-10-10T07:32:56;13.20;99.90
13433;DHT22;6789;47.678;9.158;2022-10-10T07:38:03;13.30;99.90
13433;DHT22;6789;47.678;9.158;2022-10-10T07:43:36;13.60;99.90
13433;DHT22;6789;47.678;9.158;2022-10-10T07:48:58;13.70;99.90
13433;DHT22;6789;47.678;9.158;2022-10-10T07:54:55;13.70;99.90
13433;DHT22;6789;47.678;9.158;2022-10-10T08:01:02;13.80;99.90
13433;DHT22;6789;47.678;9.158;2022-10-10T08:06:48;13.90;99.90
13433;DHT22;6789;47.678;9.158;2022-10-10T08:12:20;14.00;99.90
13433;DHT22;6789;47.678;9.158;2022-10-10T08:17:47;14.20;99.90
13433;DHT22;6789;47.678;9.158;2022-10-10T08:22:53;14.40;99.90
13433;DHT22;6789;47.678;9.158;2022-10-10T08:28:01;14.50;99.90
13433;DHT22;6789;47.678;9.158;2022-10-10T08:33:20;14.40;99.90
13433;DHT22;6789;47.678;9.158;2022-10-10T08:39:04;14.50;99.90
13433;DHT22;6789;47.678;9.158;2022-10-10T08:44:48;14.70;99.90
13433;DHT22;6789;47.678;9.158;2022-10-10T08:50:14;14.90;99.90
13433;DHT22;6789;47.678;9.158;2022-10-10T08:55:41;15.00;99.90
13433;DHT22;6789;47.678;9.158;2022-10-10T09:01:12;15.40;99.90
13433;DHT22;6789;47.678;9.158;2022-10-10T09:12:17;15.60;99.90
13433;DHT22;6789;47.678;9.158;2022-10-10T09:24:04;15.90;99.90
13433;DHT22;6789;47.678;9.158;2022-10-10T09:35:44;15.80;99.90
13433;DHT22;6789;47.678;9.158;2022-10-10T09:46:40;16.10;99.90
13433;DHT22;6789;47.678;9.158;2022-10-10T09:51:49;16.30;99.90
13433;DHT22;6789;47.678;9.158;2022-10-10T09:57:09;16.30;99.90
13433;DHT22;6789;47.678;9.158;2022-10-10T10:02:26;16.20;99.90
13433;DHT22;6789;47.678;9.158;2022-10-10T10:07:58;16.10;99.90
13433;DHT22;6789;47.678;9.158;2022-10-10T10:13:52;15.90;99.90
13433;DHT22;6789;47.678;9.158;2022-10-10T10:20:33;15.80;99.90
13433;DHT22;6789;47.678;9.158;2022-10-10T10:26:55;15.70;99.90
13433;DHT22;6789;47.678;9.158;2022-10-10T10:39:16;15.90;99.90
13433;DHT22;6789;47.678;9.158;2022-10-10T10:44:58;16.00;99.90
13433;DHT22;6789;47.678;9.158;2022-10-10T10:51:22;16.00;99.90
13433;DHT22;6789;47.678;9.158;2022-10-10T10:57:34;16.10;99.90
13433;DHT22;6789;47.678;9.158;2022-10-10T11:03:03;16.40;99.90
13433;DHT22;6789;47.678;9.158;2022-10-10T11:08:38;16.20;99.90
13433;DHT22;6789;47.678;9.158;2022-10-10T11:26:21;17.10;99.90
13433;DHT22;6789;47.678;9.158;2022-10-10T11:32:07;17.40;99.90
13433;DHT22;6789;47.678;9.158;2022-10-10T11:57:46;17.90;99.90
13433;DHT22;6789;47.678;9.158;2022-10-10T12:03:28;18.00;99.90
13433;DHT22;6789;47.678;9.158;2022-10-10T12:15:09;18.40;99.90
13433;DHT22;6789;47.678;9.158;2022-10-10T12:21:07;18.70;99.90
13433;DHT22;6789;47.678;9.158;2022-10-10T12:32:28;19.10;99.90
13433;DHT22;6789;47.678;9.158;2022-10-10T12:43:50;19.00;99.90
13433;DHT22;6789;47.678;9.158;2022-10-10T12:49:24;19.00;99.90
13433;DHT22;6789;47.678;9.158;2022-10-10T12:55:37;18.60;99.90
13433;DHT22;6789;47.678;9.158;2022-10-10T13:01:24;18.20;99.90
13433;DHT22;6789;47.678;9.158;2022-10-10T13:07:21;18.50;99.90
13433;DHT22;6789;47.678;9.158;2022-10-10T13:12:32;18.70;99.90
13433;DHT22;6789;47.678;9.158;2022-10-10T13:17:53;18.50;99.90
13433;DHT22;6789;47.678;9.158;2022-10-10T13:23:15;18.90;99.90
13433;DHT22;6789;47.678;9.158;2022-10-10T13:28:55;18.90;99.90
13433;DHT22;6789;47.678;9.158;2022-10-10T13:57:38;18.90;99.90
13433;DHT22;6789;47.678;9.158;2022-10-10T14:02:57;18.60;99.90
13433;DHT22;6789;47.678;9.158;2022-10-10T14:08:34;18.40;99.90
13433;DHT22;6789;47.678;9.158;2022-10-10T14:36:49;18.40;99.90
13433;DHT22;6789;47.678;9.158;2022-10-10T15:10:33;17.70;99.90
13433;DHT22;6789;47.678;9.158;2022-10-10T15:16:32;17.50;99.90
13433;DHT22;6789;47.678;9.158;2022-10-10T15:22:09;17.50;99.90
13433;DHT22;6789;47.678;9.158;2022-10-10T15:27:38;17.40;99.90
13433;DHT22;6789;47.678;9.158;2022-10-10T15:33:01;17.20;99.90
13433;DHT22;6789;47.678;9.158;2022-10-10T15:38:40;17.20;99.90
13433;DHT22;6789;47.678;9.158;2022-10-10T15:44:15;17.00;99.90
13433;DHT22;6789;47.678;9.158;2022-10-10T15:49:46;16.90;99.90
13433;DHT22;6789;47.678;9.158;2022-10-10T15:55:12;16.70;99.90
13433;DHT22;6789;47.678;9.158;2022-10-10T16:00:44;16.50;99.90
13433;DHT22;6789;47.678;9.158;2022-10-10T16:06:24;16.30;99.90
13433;DHT22;6789;47.678;9.158;2022-10-10T16:11:31;16.10;99.90
13433;DHT22;6789;47.678;9.158;2022-10-10T16:16:56;15.90;99.90
13433;DHT22;6789;47.678;9.158;2022-10-10T16:22:15;15.90;99.90
13433;DHT22;6789;47.678;9.158;2022-10-10T16:27:53;15.90;99.90
13433;DHT22;6789;47.678;9.158;2022-10-10T16:39:11;15.80;99.90
13433;DHT22;6789;47.678;9.158;2022-10-10T16:44:49;15.70;99.90
13433;DHT22;6789;47.678;9.158;2022-10-10T16:56:21;15.40;99.90
13433;DHT22;6789;47.678;9.158;2022-10-10T17:01:45;15.30;99.90
13433;DHT22;6789;47.678;9.158;2022-10-10T17:07:17;15.10;99.90
13433;DHT22;6789;47.678;9.158;2022-10-10T17:13:21;15.00;99.90
13433;DHT22;6789;47.678;9.158;2022-10-10T17:18:58;14.90;99.90
13433;DHT22;6789;47.678;9.158;2022-10-10T17:24:07;14.70;99.90
13433;DHT22;6789;47.678;9.158;2022-10-10T17:29:26;14.60;99.90
13433;DHT22;6789;47.678;9.158;2022-10-10T17:34:51;14.50;99.90
13433;DHT22;6789;47.678;9.158;2022-10-10T17:40:10;14.40;99.90
13433;DHT22;6789;47.678;9.158;2022-10-10T17:52:09;14.20;99.90
13433;DHT22;6789;47.678;9.158;2022-10-10T17:57:36;14.10;99.90
13433;DHT22;6789;47.678;9.158;2022-10-10T18:03:03;13.90;99.90
13433;DHT22;6789;47.678;9.158;2022-10-10T18:08:16;13.80;99.90
13433;DHT22;6789;47.678;9.158;2022-10-10T18:13:27;13.70;99.90
13433;DHT22;6789;47.678;9.158;2022-10-10T18:18:36;13.70;99.90
13433;DHT22;6789;47.678;9.158;2022-10-10T18:23:45;13.60;99.90
13433;DHT22;6789;47.678;9.158;2022-10-10T18:29:09;13.60;99.90
13433;DHT22;6789;47.678;9.158;2022-10-10T18:34:18;13.50;99.90
13433;DHT22;6789;47.678;9.158;2022-10-10T18:39:36;13.40;99.90
13433;DHT22;6789;47.678;9.158;2022-10-10T18:45:00;13.50;99.90
13433;DHT22;6789;47.678;9.158;2022-10-10T18:50:32;13.40;99.90
13433;DHT22;6789;47.678;9.158;2022-10-10T18:55:59;13.30;99.90
13433;DHT22;6789;47.678;9.158;2022-10-10T19:01:34;13.40;99.90
13433;DHT22;6789;47.678;9.158;2022-10-10T19:06:46;13.30;99.90
13433;DHT22;6789;47.678;9.158;2022-10-10T19:11:54;13.30;99.90
13433;DHT22;6789;47.678;9.158;2022-10-10T19:17:10;13.20;99.90
13433;DHT22;6789;47.678;9.158;2022-10-10T19:22:56;13.20;99.90
13433;DHT22;6789;47.678;9.158;2022-10-10T19:28:05;13.10;99.90
13433;DHT22;6789;47.678;9.158;2022-10-10T19:33:19;13.10;99.90
13433;DHT22;6789;47.678;9.158;2022-10-10T19:38:29;13.00;99.90
13433;DHT22;6789;47.678;9.158;2022-10-10T19:43:53;12.80;99.90
13433;DHT22;6789;47.678;9.158;2022-10-10T19:54:57;12.60;99.90
13433;DHT22;6789;47.678;9.158;2022-10-10T20:00:14;12.40;99.90
13433;DHT22;6789;47.678;9.158;2022-10-10T20:05:25;12.50;99.90
13433;DHT22;6789;47.678;9.158;2022-10-10T20:10:33;12.50;99.90
13433;DHT22;6789;47.678;9.158;2022-10-10T20:15:46;12.40;99.90
13433;DHT22;6789;47.678;9.158;2022-10-10T20:21:09;12.20;99.90
13433;DHT22;6789;47.678;9.158;2022-10-10T20:26:47;12.20;99.90
13433;DHT22;6789;47.678;9.158;2022-10-10T20:31:54;12.10;99.90
13433;DHT22;6789;47.678;9.158;2022-10-10T20:37:02;12.10;99.90
13433;DHT22;6789;47.678;9.158;2022-10-10T20:42:23;12.10;99.90
13433;DHT22;6789;47.678;9.158;2022-10-10T20:47:50;12.20;99.90
13433;DHT22;6789;47.678;9.158;2022-10-10T20:52:58;12.00;99.90
13433;DHT22;6789;47.678;9.158;2022-10-10T20:58:14;12.10;99.90
13433;DHT22;6789;47.678;9.158;2022-10-10T21:03:22;12.10;99.90
13433;DHT22;6789;47.678;9.158;2022-10-10T21:08:40;12.00;99.90
13433;DHT22;6789;47.678;9.158;2022-10-10T21:13:51;12.10;99.90
13433;DHT22;6789;47.678;9.158;2022-10-10T21:19:13;12.00;99.90
13433;DHT22;6789;47.678;9.158;2022-10-10T21:24:30;12.00;99.90
13433;DHT22;6789;47.678;9.158;2022-10-10T21:29:36;11.90;99.90
13433;DHT22;6789;47.678;9.158;2022-10-10T21:34:45;11.90;99.90
13433;DHT22;6789;47.678;9.158;2022-10-10T21:39:54;11.90;99.90
13433;DHT22;6789;47.678;9.158;2022-10-10T21:45:11;12.00;99.90
13433;DHT22;6789;47.678;9.158;2022-10-10T21:50:36;12.00;99.90
13433;DHT22;6789;47.678;9.158;2022-10-10T21:55:51;12.00;99.90
13433;DHT22;6789;47.678;9.158;2022-10-10T22:01:28;12.00;99.90
13433;DHT22;6789;47.678;9.158;2022-10-10T22:13:20;12.10;99.90
13433;DHT22;6789;47.678;9.158;2022-10-10T22:18:31;12.00;99.90
13433;DHT22;6789;47.678;9.158;2022-10-10T22:23:37;12.00;99.90
13433;DHT22;6789;47.678;9.158;2022-10-10T22:28:44;11.90;99.90
13433;DHT22;6789;47.678;9.158;2022-10-10T22:34:06;12.00;99.90
13433;DHT22;6789;47.678;9.158;2022-10-10T22:39:22;12.00;99.90
13433;DHT22;6789;47.678;9.158;2022-10-10T22:44:28;12.10;99.90
13433;DHT22;6789;47.678;9.158;2022-10-10T22:49:34;12.10;99.90
13433;DHT22;6789;47.678;9.158;2022-10-10T22:54:42;12.00;99.90
13433;DHT22;6789;47.678;9.158;2022-10-10T22:59:48;12.00;99.90
13433;DHT22;6789;47.678;9.158;2022-10-10T23:04:55;12.10;99.90
13433;DHT22;6789;47.678;9.158;2022-10-10T23:10:04;12.00;99.90
13433;DHT22;6789;47.678;9.158;2022-10-10T23:15:12;12.10;99.90
13433;DHT22;6789;47.678;9.158;2022-10-10T23:20:23;12.20;99.90
13433;DHT22;6789;47.678;9.158;2022-10-10T23:25:30;12.10;99.90
13433;DHT22;6789;47.678;9.158;2022-10-10T23:30:52;12.20;99.90
13433;DHT22;6789;47.678;9.158;2022-10-10T23:36:00;12.20;99.90
13433;DHT22;6789;47.678;9.158;2022-10-10T23:41:09;12.10;99.90
13433;DHT22;6789;47.678;9.158;2022-10-10T23:46:18;12.10;99.90
13433;DHT22;6789;47.678;9.158;2022-10-10T23:51:25;12.20;99.90
13433;DHT22;6789;47.678;9.158;2022-10-10T23:56:33;12.20;99.90
